Time;durP1;ratioP1;P1;durP2;ratioP2;P2;SDS_P1;SDS_P2;PMS_P1;PMS_P2;Temp;Humidity;BMP_temperature;BMP_pressure;BME280_temperature;BME280_humidity;BME280_pressure;Samples;Min_cycle;Max_cycle;Signal;HPM_P1;HPM_P2
2021/05/02 00:03:10;;;;;;;2.65;0.80;;;6.60;99.90;;;;;;12966384;22;20042;-48
2021/05/02 00:08:11;;;;;;;1.77;0.73;;;6.50;99.90;;;;;;12967211;22;20034;-48
2021/05/02 00:13:12;;;;;;;3.28;1.25;;;6.50;99.90;;;;;;12965601;22;20015;-48
2021/05/02 00:18:14;;;;;;;2.78;1.27;;;6.50;99.90;;;;;;12967777;22;20011;-48
2021/05/02 00:23:14;;;;;;;3.20;0.98;;;6.50;99.90;;;;;;12966035;22;20094;-48
2021/05/02 00:28:16;;;;;;;1.92;1.00;;;6.40;99.90;;;;;;12963526;22;20182;-48
2021/05/02 00:33:18;;;;;;;2.03;0.90;;;6.30;99.90;;;;;;12970449;22;20012;-48
2021/05/02 00:38:19;;;;;;;3.08;0.77;;;6.30;99.90;;;;;;12967136;22;20010;-49
2021/05/02 00:43:44;;;;;;;1.98;0.95;;;6.20;99.90;;;;;;12966367;22;20030;-48
2021/05/02 00:49:12;;;;;;;2.45;0.80;;;6.20;99.90;;;;;;12958687;22;20023;-48
2021/05/02 00:54:20;;;;;;;2.50;1.17;;;6.10;99.90;;;;;;12965489;22;20011;-48
2021/05/02 00:59:49;;;;;;;2.37;1.03;;;6.00;99.90;;;;;;12964393;22;20018;-48
2021/05/02 01:04:52;;;;;;;2.23;0.87;;;5.80;99.90;;;;;;12961031;22;20008;-48
2021/05/02 01:09:58;;;;;;;2.22;1.00;;;5.60;99.90;;;;;;12964310;22;20578;-48
2021/05/02 01:15:02;;;;;;;2.80;1.20;;;5.60;99.90;;;;;;12964094;22;20039;-48
2021/05/02 01:20:02;;;;;;;3.08;0.93;;;5.50;99.90;;;;;;12952387;22;20015;-48
2021/05/02 01:25:04;;;;;;;4.82;1.23;;;5.50;99.90;;;;;;12959829;22;20094;-48
2021/05/02 01:30:09;;;;;;;4.15;1.17;;;5.50;99.90;;;;;;12962549;22;20011;-48
2021/05/02 01:35:11;;;;;;;3.58;1.95;;;5.40;99.90;;;;;;12964265;22;20470;-48
2021/05/02 01:40:14;;;;;;;2.83;1.02;;;5.40;99.90;;;;;;12963886;22;20020;-48
2021/05/02 01:45:15;;;;;;;2.63;1.33;;;5.30;99.90;;;;;;12963529;22;20038;-48
2021/05/02 01:50:17;;;;;;;3.88;1.27;;;5.20;99.90;;;;;;12961330;22;20288;-48
2021/05/02 01:55:18;;;;;;;3.75;1.45;;;5.20;99.90;;;;;;12959229;22;20046;-47
2021/05/02 02:00:25;;;;;;;4.40;1.25;;;5.10;99.90;;;;;;12963073;22;20012;-48
2021/05/02 02:05:29;;;;;;;2.53;1.00;;;5.10;99.90;;;;;;12965814;22;20015;-48
2021/05/02 02:10:30;;;;;;;5.13;1.70;;;5.10;99.90;;;;;;12968611;22;20062;-48
2021/05/02 02:15:31;;;;;;;3.88;1.25;;;4.90;99.90;;;;;;12963741;22;20084;-48
2021/05/02 02:20:40;;;;;;;2.70;1.02;;;4.80;99.90;;;;;;12963561;22;20088;-48
2021/05/02 02:25:43;;;;;;;2.63;1.20;;;4.80;99.90;;;;;;12960594;22;20012;-48
2021/05/02 02:31:26;;;;;;;2.17;1.35;;;4.70;99.90;;;;;;12963939;22;20016;-48
2021/05/02 02:36:27;;;;;;;2.88;1.52;;;4.70;99.90;;;;;;12964407;22;20447;-48
2021/05/02 02:41:30;;;;;;;2.47;1.00;;;4.60;99.90;;;;;;12968128;22;20093;-48
2021/05/02 02:46:31;;;;;;;2.97;1.13;;;4.50;99.90;;;;;;12964252;22;20019;-48
2021/05/02 02:51:34;;;;;;;2.50;1.23;;;4.40;99.90;;;;;;12965223;22;20023;-48
2021/05/02 02:56:39;;;;;;;1.75;1.00;;;4.40;99.90;;;;;;12969558;22;20011;-47
2021/05/02 03:01:46;;;;;;;4.53;1.92;;;4.30;99.90;;;;;;12965132;22;20022;-48
2021/05/02 03:06:51;;;;;;;2.77;1.00;;;4.30;99.90;;;;;;12967936;22;20015;-48
2021/05/02 03:11:51;;;;;;;3.17;1.50;;;4.20;99.90;;;;;;12967569;22;20030;-48
2021/05/02 03:16:57;;;;;;;4.82;1.35;;;4.30;99.90;;;;;;12967848;22;20016;-48
2021/05/02 03:22:15;;;;;;;3.88;1.52;;;4.30;99.90;;;;;;12965976;22;20066;-48
2021/05/02 03:27:26;;;;;;;4.20;1.77;;;4.30;99.90;;;;;;12967621;22;20031;-47
2021/05/02 03:32:31;;;;;;;5.38;1.70;;;4.20;99.90;;;;;;12966416;22;20381;-48
2021/05/02 03:37:35;;;;;;;4.10;1.45;;;4.10;99.90;;;;;;12965818;22;20042;-48
2021/05/02 03:42:36;;;;;;;4.30;1.98;;;4.10;99.90;;;;;;12967025;22;20062;-48
2021/05/02 03:47:37;;;;;;;6.97;1.70;;;4.00;99.90;;;;;;12966642;22;20419;-48
2021/05/02 03:52:37;;;;;;;2.65;1.33;;;4.00;99.90;;;;;;12967738;22;20101;-48
2021/05/02 03:57:38;;;;;;;1.63;0.73;;;4.00;99.90;;;;;;12964886;22;20062;-48
2021/05/02 04:02:39;;;;;;;3.25;1.35;;;3.90;99.90;;;;;;12965943;22;20444;-48
2021/05/02 04:07:39;;;;;;;3.50;1.52;;;3.90;99.90;;;;;;12967016;22;20008;-48
2021/05/02 04:12:40;;;;;;;3.22;1.35;;;3.90;99.90;;;;;;12966901;22;20094;-48
2021/05/02 04:17:41;;;;;;;5.65;1.95;;;3.90;99.90;;;;;;12965812;22;20418;-48
2021/05/02 04:22:42;;;;;;;3.10;1.35;;;3.90;99.90;;;;;;12966211;22;20398;-48
2021/05/02 04:27:43;;;;;;;4.78;2.05;;;3.80;99.90;;;;;;12966504;22;20047;-48
2021/05/02 04:32:44;;;;;;;3.28;1.08;;;3.80;99.90;;;;;;12966464;22;20012;-48
2021/05/02 04:37:45;;;;;;;4.28;1.63;;;3.90;99.90;;;;;;12968827;22;20563;-48
2021/05/02 04:42:45;;;;;;;2.75;1.33;;;3.90;99.90;;;;;;12970372;22;20026;-48
2021/05/02 04:47:46;;;;;;;6.63;1.05;;;3.90;99.90;;;;;;12971129;22;20016;-48
2021/05/02 04:52:47;;;;;;;2.78;1.42;;;3.90;99.90;;;;;;12971085;22;20029;-48
2021/05/02 04:57:47;;;;;;;2.60;1.35;;;3.90;99.90;;;;;;12971039;22;20048;-48
2021/05/02 05:02:48;;;;;;;3.15;1.45;;;4.00;99.90;;;;;;12968340;22;20039;-48
2021/05/02 05:07:49;;;;;;;2.67;0.85;;;4.20;99.90;;;;;;12970800;22;20026;-48
2021/05/02 05:12:50;;;;;;;1.75;1.10;;;4.30;99.90;;;;;;12969782;22;20094;-48
2021/05/02 05:17:50;;;;;;;2.53;1.20;;;4.50;99.90;;;;;;12970562;22;20046;-48
2021/05/02 05:22:51;;;;;;;3.55;1.55;;;4.70;99.90;;;;;;12971568;22;20023;-48
2021/05/02 05:27:52;;;;;;;4.53;1.35;;;4.90;99.90;;;;;;12969857;22;20019;-48
2021/05/02 05:33:03;;;;;;;2.45;1.15;;;5.10;99.90;;;;;;12969146;22;20016;-48
2021/05/02 05:38:05;;;;;;;2.13;0.93;;;5.30;99.90;;;;;;12968160;22;20083;-48
2021/05/02 05:43:06;;;;;;;1.63;0.63;;;5.70;99.90;;;;;;12968051;22;20512;-48
2021/05/02 05:48:07;;;;;;;2.45;0.65;;;6.10;99.90;;;;;;12967067;22;20007;-48
2021/05/02 05:53:07;;;;;;;1.50;0.77;;;6.40;99.90;;;;;;12968883;22;20396;-48
2021/05/02 05:58:08;;;;;;;1.50;0.50;;;6.70;99.90;;;;;;12966994;22;20014;-48
2021/05/02 06:03:09;;;;;;;3.85;0.82;;;7.10;99.90;;;;;;12968399;22;20348;-48
2021/05/02 06:08:09;;;;;;;1.88;0.52;;;7.20;99.90;;;;;;12966784;22;20016;-48
2021/05/02 06:13:10;;;;;;;2.10;1.00;;;7.40;99.90;;;;;;12969924;22;20096;-48
2021/05/02 06:18:12;;;;;;;1.42;0.43;;;7.50;99.90;;;;;;12966093;22;20008;-48
2021/05/02 06:23:12;;;;;;;1.33;0.52;;;7.80;99.90;;;;;;12966895;22;20016;-48
2021/05/02 06:28:13;;;;;;;0.98;0.30;;;7.80;99.90;;;;;;12970354;22;20479;-48
2021/05/02 06:33:13;;;;;;;1.77;0.68;;;7.90;99.90;;;;;;12966788;22;20015;-48
2021/05/02 06:38:14;;;;;;;1.65;0.68;;;8.10;99.90;;;;;;12968498;22;20004;-48
2021/05/02 06:43:15;;;;;;;5.28;0.90;;;8.30;99.90;;;;;;12969552;22;20014;-48
2021/05/02 06:48:15;;;;;;;0.77;0.30;;;8.40;99.90;;;;;;12968124;22;20007;-48
2021/05/02 06:53:16;;;;;;;1.75;0.65;;;8.60;99.90;;;;;;12943653;22;20087;-48
2021/05/02 06:58:17;;;;;;;1.63;0.50;;;8.70;99.90;;;;;;12963632;22;20016;-48
2021/05/02 07:03:18;;;;;;;1.98;0.50;;;8.90;99.90;;;;;;12966312;22;20041;-49
2021/05/02 07:08:19;;;;;;;2.17;0.98;;;9.30;99.90;;;;;;12965910;22;20024;-48
2021/05/02 07:13:19;;;;;;;4.38;0.57;;;9.40;99.90;;;;;;12959408;22;20343;-48
2021/05/02 07:18:20;;;;;;;1.55;0.55;;;9.50;99.90;;;;;;12966112;22;20419;-48
2021/05/02 07:23:21;;;;;;;1.25;0.50;;;9.50;99.90;;;;;;12965990;22;20090;-48
2021/05/02 07:28:22;;;;;;;0.60;0.20;;;9.60;99.90;;;;;;12964449;22;20012;-48
2021/05/02 07:33:23;;;;;;;2.45;0.70;;;9.60;99.90;;;;;;12957979;22;20393;-48
2021/05/02 07:38:24;;;;;;;1.70;0.65;;;9.70;99.90;;;;;;12963853;22;20521;-48
2021/05/02 07:43:25;;;;;;;0.80;0.30;;;9.90;99.90;;;;;;12959930;22;20061;-48
2021/05/02 07:48:25;;;;;;;0.93;0.35;;;10.00;99.90;;;;;;12961827;22;20018;-48
2021/05/02 07:53:26;;;;;;;1.67;0.55;;;9.80;99.90;;;;;;12949598;22;20007;-48
2021/05/02 07:58:26;;;;;;;1.52;0.20;;;10.00;99.90;;;;;;12955439;22;20465;-48
2021/05/02 08:03:27;;;;;;;1.67;0.40;;;10.40;99.90;;;;;;12959646;22;20011;-48
2021/05/02 08:08:28;;;;;;;2.15;0.60;;;10.40;99.90;;;;;;12963428;22;20031;-48
2021/05/02 08:13:29;;;;;;;1.05;0.30;;;10.30;99.90;;;;;;12960620;22;20020;-48
2021/05/02 08:18:30;;;;;;;0.98;0.30;;;10.40;99.90;;;;;;12973020;22;20270;-48
2021/05/02 08:23:30;;;;;;;1.13;0.30;;;10.50;99.90;;;;;;12970968;22;20020;-48
2021/05/02 08:28:31;;;;;;;1.98;0.32;;;10.90;99.90;;;;;;12966531;22;20012;-48
2021/05/02 08:33:32;;;;;;;2.13;0.43;;;11.00;99.90;;;;;;12958276;22;20016;-48
2021/05/02 08:38:33;;;;;;;0.85;0.20;;;10.90;99.90;;;;;;12965616;22;20061;-48
2021/05/02 08:43:35;;;;;;;1.35;0.20;;;10.60;99.90;;;;;;12967182;22;20046;-48
2021/05/02 08:48:36;;;;;;;0.77;0.20;;;10.40;99.90;;;;;;12963900;22;20015;-48
2021/05/02 08:53:36;;;;;;;1.08;0.40;;;9.80;99.90;;;;;;12956933;22;20141;-48
2021/05/02 08:58:37;;;;;;;1.45;0.30;;;9.50;99.90;;;;;;12961805;22;20023;-48
2021/05/02 09:03:40;;;;;;;0.95;0.30;;;9.30;99.90;;;;;;12958625;22;20283;-48
2021/05/02 09:08:41;;;;;;;0.60;0.32;;;9.20;99.90;;;;;;12968900;22;20050;-48
2021/05/02 09:13:51;;;;;;;0.82;0.20;;;9.10;99.90;;;;;;12958849;22;20015;-48
2021/05/02 09:18:57;;;;;;;1.00;0.38;;;9.10;99.90;;;;;;12964975;22;20069;-48
2021/05/02 09:23:59;;;;;;;8.65;0.85;;;9.40;99.90;;;;;;12969657;22;20016;-48
2021/05/02 09:29:03;;;;;;;0.85;0.32;;;9.80;99.90;;;;;;12964386;22;20012;-48
2021/05/02 09:34:18;;;;;;;1.52;0.30;;;10.20;99.90;;;;;;12957320;22;20061;-48
2021/05/02 09:39:50;;;;;;;1.17;0.47;;;10.30;99.90;;;;;;12966516;22;20425;-48
2021/05/02 09:44:52;;;;;;;0.63;0.30;;;10.30;99.90;;;;;;12967484;22;20371;-48
2021/05/02 09:50:04;;;;;;;1.33;0.50;;;10.40;99.90;;;;;;12966300;22;20012;-48
2021/05/02 09:55:22;;;;;;;0.95;0.22;;;10.20;99.90;;;;;;12967354;22;20477;-48
2021/05/02 10:00:34;;;;;;;1.00;0.43;;;10.10;99.90;;;;;;12963100;22;20016;-48
2021/05/02 10:05:36;;;;;;;0.60;0.38;;;9.90;99.90;;;;;;12967925;22;20125;-48
2021/05/02 10:10:37;;;;;;;0.52;0.28;;;9.90;99.90;;;;;;12953124;22;20248;-48
2021/05/02 10:15:38;;;;;;;2.45;0.52;;;10.20;99.90;;;;;;12967360;22;20019;-48
2021/05/02 10:20:43;;;;;;;1.38;0.40;;;11.00;99.90;;;;;;12967346;22;20023;-48
2021/05/02 10:25:46;;;;;;;1.48;0.25;;;12.20;99.90;;;;;;12969019;22;20018;-48
2021/05/02 10:30:49;;;;;;;1.58;0.25;;;12.10;99.90;;;;;;12957800;22;20018;-48
2021/05/02 10:35:54;;;;;;;1.02;0.30;;;11.40;99.90;;;;;;12965487;22;20090;-48
2021/05/02 10:41:25;;;;;;;0.80;0.40;;;11.30;99.90;;;;;;12966042;22;20047;-48
2021/05/02 10:46:41;;;;;;;1.27;0.40;;;11.60;99.90;;;;;;12964401;22;20003;-48
2021/05/02 10:51:42;;;;;;;0.95;0.40;;;11.40;99.90;;;;;;12955410;22;20016;-48
2021/05/02 10:56:44;;;;;;;0.98;0.35;;;12.30;99.90;;;;;;12964702;22;20447;-48
2021/05/02 11:01:46;;;;;;;1.05;0.30;;;12.20;99.90;;;;;;12962072;22;20122;-48
2021/05/02 11:06:51;;;;;;;4.82;0.40;;;11.60;99.90;;;;;;12964891;22;20015;-48
2021/05/02 11:11:53;;;;;;;1.23;0.65;;;11.30;99.90;;;;;;12951345;22;20034;-48
2021/05/02 11:16:54;;;;;;;0.93;0.22;;;11.00;99.90;;;;;;12963414;22;20007;-48
2021/05/02 11:22:01;;;;;;;0.17;0.15;;;10.80;99.90;;;;;;12958002;22;20094;-48
2021/05/02 11:38:40;;;;;;;0.80;0.28;;;10.90;99.90;;;;;;13024325;22;20034;-81
2021/05/02 11:43:43;;;;;;;2.22;0.68;;;11.20;99.90;;;;;;13017472;22;20030;-81
2021/05/02 11:48:45;;;;;;;1.25;0.50;;;11.70;99.90;;;;;;12986370;22;20368;-81
2021/05/02 11:54:11;;;;;;;0.52;0.20;;;12.20;99.90;;;;;;12981214;22;20334;-82
2021/05/02 11:59:12;;;;;;;0.90;0.35;;;13.10;99.90;;;;;;12982895;22;20345;-81
2021/05/02 12:04:18;;;;;;;0.75;0.25;;;14.10;99.90;;;;;;12990270;22;20015;-81
2021/05/02 12:09:21;;;;;;;0.43;0.17;;;15.00;97.00;;;;;;13011198;22;20418;-81
2021/05/02 12:14:32;;;;;;;0.85;0.30;;;14.50;98.30;;;;;;12980129;22;20451;-81
2021/05/02 12:19:37;;;;;;;1.65;0.20;;;14.00;99.90;;;;;;12982920;22;20331;-81
2021/05/02 12:24:40;;;;;;;0.30;0.17;;;15.40;94.50;;;;;;12932987;22;20022;-83
2021/05/02 12:29:52;;;;;;;1.40;1.02;;;16.10;91.20;;;;;;12944444;22;20026;-82
2021/05/02 12:34:53;;;;;;;0.98;0.52;;;16.00;91.00;;;;;;12939563;22;20027;-81
2021/05/02 12:40:01;;;;;;;0.63;0.20;;;14.70;93.90;;;;;;13007149;22;20081;-81
2021/05/02 12:45:05;;;;;;;0.65;0.20;;;13.60;97.70;;;;;;12938691;22;20024;-81
2021/05/02 12:50:09;;;;;;;0.73;0.10;;;13.50;98.60;;;;;;12934706;22;20000;-81
2021/05/02 12:55:33;;;;;;;0.45;0.32;;;15.20;95.30;;;;;;12931377;22;20087;-81
2021/05/02 13:00:43;;;;;;;0.55;0.35;;;17.30;79.70;;;;;;12952474;22;20020;-82
2021/05/02 13:06:25;;;;;;;0.35;0.20;;;18.00;81.70;;;;;;12975975;22;20018;-82
2021/05/02 13:11:35;;;;;;;1.30;0.55;;;19.20;70.40;;;;;;13004714;22;20016;-81
2021/05/02 13:17:16;;;;;;;;;;;;;;;;;;;;;
2021/05/02 13:22:44;;;;;;;1.75;0.45;;;18.50;69.90;;;;;;13002861;22;20026;-81
2021/05/02 13:34:04;;;;;;;0.80;0.30;;;14.60;97.70;;;;;;13006129;22;20007;-81
2021/05/02 13:45:44;;;;;;;0.45;0.15;;;12.90;99.90;;;;;;13044871;22;20014;-81
2021/05/02 13:51:32;;;;;;;1.10;0.40;;;13.40;99.00;;;;;;12942441;22;20003;-81
2021/05/02 13:56:46;;;;;;;0.73;0.15;;;14.00;99.40;;;;;;13000626;22;20007;-81
2021/05/02 14:01:47;;;;;;;1.80;0.32;;;14.60;99.50;;;;;;13047462;22;20023;-81
2021/05/02 14:06:48;;;;;;;1.85;0.43;;;15.20;98.50;;;;;;13015461;22;20367;-80
2021/05/02 14:11:49;;;;;;;0.32;0.10;;;15.20;95.50;;;;;;12973966;22;20010;-81
2021/05/02 14:17:01;;;;;;;0.70;0.13;;;15.10;94.00;;;;;;12981820;22;20037;-82
2021/05/02 14:22:05;;;;;;;0.22;0.10;;;14.70;94.10;;;;;;13060840;22;20034;-82
2021/05/02 14:27:15;;;;;;;2.88;1.10;;;14.10;96.10;;;;;;13009349;22;20011;-82
2021/05/02 14:32:24;;;;;;;0.57;0.10;;;13.20;98.50;;;;;;13012432;22;20011;-82
2021/05/02 14:37:40;;;;;;;1.00;0.30;;;12.70;99.90;;;;;;13062706;22;20014;-83
2021/05/02 14:43:26;;;;;;;;;;;;;;;;;;;;;
2021/05/02 14:48:44;;;;;;;1.02;0.20;;;12.00;99.90;;;;;;13038964;22;20027;-47
2021/05/02 14:53:44;;;;;;;0.32;0.10;;;11.90;99.90;;;;;;13077004;22;20006;-47
2021/05/02 14:58:45;;;;;;;0.47;0.20;;;12.30;99.90;;;;;;13083613;22;20383;-47
2021/05/02 15:03:46;;;;;;;0.85;0.30;;;12.70;99.90;;;;;;13084962;22;20015;-47
2021/05/02 15:08:46;;;;;;;0.40;0.10;;;13.10;99.90;;;;;;13084664;22;20085;-47
2021/05/02 15:13:47;;;;;;;0.35;0.30;;;13.20;98.90;;;;;;13057740;22;20014;-47
2021/05/02 15:18:48;;;;;;;0.45;0.10;;;13.10;99.90;;;;;;13079224;22;20423;-47
2021/05/02 15:23:48;;;;;;;0.08;0.08;;;13.20;99.30;;;;;;13083122;22;20088;-47
2021/05/02 15:28:49;;;;;;;2.58;1.10;;;13.10;98.20;;;;;;13087372;22;20010;-47
2021/05/02 15:33:49;;;;;;;1.27;0.85;;;13.10;99.90;;;;;;13087523;22;20014;-47
2021/05/02 15:38:50;;;;;;;4.47;0.38;;;12.80;99.90;;;;;;13091179;22;20090;-47
2021/05/02 15:43:52;;;;;;;1.17;0.25;;;12.70;99.80;;;;;;13087861;22;20007;-47
2021/05/02 15:48:53;;;;;;;0.40;0.20;;;12.50;99.90;;;;;;13086674;22;20030;-47
2021/05/02 15:53:54;;;;;;;0.40;0.10;;;12.50;99.90;;;;;;13090003;22;20094;-47
2021/05/02 15:58:55;;;;;;;0.65;0.28;;;12.30;99.90;;;;;;13090784;22;20014;-47
2021/05/02 16:03:56;;;;;;;0.85;0.30;;;12.40;99.90;;;;;;13089134;22;20418;-47
2021/05/02 16:08:57;;;;;;;0.50;0.17;;;12.30;99.70;;;;;;13092274;22;20070;-47
2021/05/02 16:13:59;;;;;;;0.40;0.20;;;12.30;99.90;;;;;;13088582;22;20002;-47
2021/05/02 16:19:00;;;;;;;1.38;0.13;;;12.10;99.90;;;;;;13084717;22;20011;-47
2021/05/02 16:24:01;;;;;;;0.75;0.22;;;12.10;99.90;;;;;;13087803;22;20482;-47
2021/05/02 16:29:01;;;;;;;0.35;0.10;;;11.90;99.90;;;;;;13087651;22;20039;-47
2021/05/02 16:34:02;;;;;;;0.52;0.30;;;11.80;99.90;;;;;;13087688;22;20035;-47
2021/05/02 16:39:03;;;;;;;0.57;0.20;;;11.80;99.90;;;;;;13092473;22;20007;-47
2021/05/02 16:44:06;;;;;;;1.10;0.20;;;11.70;99.90;;;;;;13091050;22;20344;-47
2021/05/02 16:49:06;;;;;;;1.23;0.47;;;11.50;99.90;;;;;;13090727;22;20013;-47
2021/05/02 16:54:07;;;;;;;1.38;0.30;;;11.20;99.90;;;;;;13092730;22;20014;-47
2021/05/02 16:59:10;;;;;;;0.65;0.38;;;11.20;99.90;;;;;;13090001;22;20086;-47
2021/05/02 17:04:10;;;;;;;2.83;0.40;;;11.10;99.90;;;;;;13095566;22;20006;-47
2021/05/02 17:09:11;;;;;;;0.30;0.20;;;10.80;99.90;;;;;;13096468;22;20365;-47
2021/05/02 17:14:12;;;;;;;0.25;0.10;;;10.70;99.90;;;;;;13095062;22;20023;-47
2021/05/02 17:19:12;;;;;;;0.57;0.05;;;10.80;99.90;;;;;;13094218;22;20026;-47
2021/05/02 17:24:13;;;;;;;0.32;0.10;;;10.70;99.90;;;;;;13096797;22;20013;-47
2021/05/02 17:29:14;;;;;;;0.32;0.15;;;10.60;99.90;;;;;;13067044;22;20009;-47
2021/05/02 17:34:15;;;;;;;0.75;0.22;;;10.40;99.90;;;;;;13082408;22;20223;-47
2021/05/02 17:39:16;;;;;;;1.20;0.22;;;10.40;99.90;;;;;;13089556;22;20078;-47
2021/05/02 17:44:16;;;;;;;0.40;0.20;;;10.20;99.90;;;;;;13088657;22;20077;-47
2021/05/02 17:49:17;;;;;;;0.10;0.10;;;10.10;99.90;;;;;;13086722;22;20011;-47
2021/05/02 17:54:18;;;;;;;0.77;0.30;;;10.00;99.90;;;;;;13089075;22;20041;-47
2021/05/02 17:59:22;;;;;;;1.13;0.55;;;10.00;99.90;;;;;;13086988;22;20080;-47
2021/05/02 18:04:22;;;;;;;1.45;0.30;;;10.00;99.90;;;;;;13056644;22;20029;-47
2021/05/02 18:09:23;;;;;;;0.73;0.25;;;10.00;99.90;;;;;;13088951;22;20490;-47
2021/05/02 18:14:24;;;;;;;0.88;0.30;;;9.90;99.90;;;;;;13088414;22;20007;-47
2021/05/02 18:19:24;;;;;;;0.57;0.22;;;9.80;99.90;;;;;;13086135;22;20354;-47
2021/05/02 18:24:26;;;;;;;1.40;0.50;;;9.70;99.90;;;;;;13089969;22;20002;-47
2021/05/02 18:29:26;;;;;;;1.27;0.30;;;9.60;99.90;;;;;;13091549;22;20037;-47
2021/05/02 18:34:27;;;;;;;3.58;0.60;;;9.60;99.90;;;;;;13090891;22;20045;-47
2021/05/02 18:39:28;;;;;;;1.05;0.40;;;9.50;99.90;;;;;;13094990;22;20011;-47
2021/05/02 18:44:28;;;;;;;1.70;0.82;;;9.40;99.90;;;;;;13093373;22;20019;-46
2021/05/02 18:49:29;;;;;;;1.30;0.30;;;9.20;99.90;;;;;;13089623;22;20015;-47
2021/05/02 18:54:30;;;;;;;1.05;0.50;;;9.10;99.90;;;;;;13089073;22;20014;-47
2021/05/02 18:59:31;;;;;;;1.70;0.95;;;9.00;99.90;;;;;;13090366;22;20029;-47
2021/05/02 19:04:31;;;;;;;5.53;0.63;;;8.80;99.90;;;;;;13090379;22;20083;-47
2021/05/02 19:09:33;;;;;;;1.73;0.63;;;8.80;99.90;;;;;;13088391;22;20346;-47
2021/05/02 19:14:33;;;;;;;0.70;0.40;;;8.70;99.90;;;;;;13087503;22;20081;-47
2021/05/02 19:19:34;;;;;;;2.38;1.00;;;8.60;99.90;;;;;;13086472;22;20307;-47
2021/05/02 19:24:35;;;;;;;2.53;0.88;;;8.50;99.90;;;;;;13089865;22;20003;-47
2021/05/02 19:29:36;;;;;;;1.13;0.68;;;8.40;99.90;;;;;;13081873;22;20007;-47
2021/05/02 19:34:36;;;;;;;0.70;0.30;;;8.30;99.90;;;;;;13085132;22;20041;-47
2021/05/02 19:39:37;;;;;;;1.38;0.43;;;8.20;99.90;;;;;;13091402;22;20007;-47
2021/05/02 19:44:39;;;;;;;0.57;0.20;;;8.10;99.90;;;;;;13091766;22;20323;-47
2021/05/02 19:49:39;;;;;;;1.58;0.40;;;8.00;99.90;;;;;;13083286;22;20078;-47
2021/05/02 19:54:40;;;;;;;1.50;0.38;;;7.90;99.90;;;;;;13085536;22;20016;-47
2021/05/02 19:59:41;;;;;;;0.93;0.40;;;7.70;99.90;;;;;;13086841;22;20326;-47
2021/05/02 20:04:41;;;;;;;3.70;0.88;;;7.70;99.90;;;;;;13088458;22;20382;-46
2021/05/02 20:09:42;;;;;;;1.20;0.40;;;7.60;99.90;;;;;;13092657;22;20011;-47
2021/05/02 20:14:43;;;;;;;3.13;0.40;;;7.50;99.90;;;;;;13089971;22;20007;-47
2021/05/02 20:19:44;;;;;;;1.30;0.40;;;7.40;99.90;;;;;;13089546;22;20003;-47
2021/05/02 20:24:45;;;;;;;0.93;0.40;;;7.30;99.90;;;;;;13091173;22;20520;-47
2021/05/02 20:29:45;;;;;;;1.17;0.30;;;7.30;99.90;;;;;;13091176;22;20007;-47
2021/05/02 20:34:49;;;;;;;1.35;0.50;;;7.20;99.90;;;;;;13089058;22;20113;-47
2021/05/02 20:39:52;;;;;;;0.85;0.40;;;7.20;99.90;;;;;;13090965;22;20352;-47
2021/05/02 20:44:53;;;;;;;0.80;0.30;;;7.00;99.90;;;;;;13094562;22;20109;-47
2021/05/02 20:49:54;;;;;;;3.67;0.77;;;7.00;99.90;;;;;;13097559;22;20006;-47
2021/05/02 20:54:55;;;;;;;1.00;0.30;;;6.90;99.90;;;;;;13100062;22;20085;-47
2021/05/02 20:59:55;;;;;;;1.52;0.25;;;6.80;99.90;;;;;;13103464;22;20014;-47
2021/05/02 21:04:56;;;;;;;3.08;0.40;;;6.80;99.90;;;;;;13101979;22;20014;-47
2021/05/02 21:09:57;;;;;;;1.40;0.60;;;6.80;99.90;;;;;;13102740;22;20011;-47
2021/05/02 21:14:58;;;;;;;1.55;0.50;;;6.80;99.90;;;;;;13103548;22;20084;-47
2021/05/02 21:19:58;;;;;;;3.55;1.42;;;6.80;99.90;;;;;;13099081;22;20034;-47
2021/05/02 21:24:59;;;;;;;2.33;0.60;;;6.70;99.90;;;;;;13099645;22;20086;-47
2021/05/02 21:30:00;;;;;;;0.93;0.57;;;6.70;99.90;;;;;;13099088;22;20002;-47
2021/05/02 21:35:00;;;;;;;1.50;0.50;;;6.60;99.90;;;;;;13102886;22;20089;-47
2021/05/02 21:40:04;;;;;;;1.05;0.50;;;6.50;99.90;;;;;;13104610;22;20086;-47
2021/05/02 21:45:10;;;;;;;2.50;0.75;;;6.50;99.90;;;;;;13104711;22;20023;-47
2021/05/02 21:50:11;;;;;;;1.70;0.73;;;6.40;99.90;;;;;;13102842;22;20060;-47
2021/05/02 21:55:12;;;;;;;2.30;0.70;;;6.30;99.90;;;;;;13103211;22;20476;-47
2021/05/02 22:00:17;;;;;;;1.20;0.52;;;6.40;99.90;;;;;;13101339;22;20015;-47
2021/05/02 22:05:18;;;;;;;1.77;0.30;;;6.30;99.90;;;;;;13103461;22;20003;-46
2021/05/02 22:10:21;;;;;;;1.25;0.47;;;6.30;99.90;;;;;;13101456;22;20034;-47
2021/05/02 22:15:24;;;;;;;1.45;0.57;;;6.20;99.90;;;;;;13102087;22;20084;-47
2021/05/02 22:20:25;;;;;;;1.20;0.63;;;6.10;99.90;;;;;;13100773;22;20430;-46
2021/05/02 22:25:25;;;;;;;1.98;0.80;;;6.00;99.90;;;;;;13100148;22;20081;-47
2021/05/02 22:30:26;;;;;;;0.65;0.40;;;6.00;99.90;;;;;;13100392;22;20010;-47
2021/05/02 22:35:27;;;;;;;1.83;0.57;;;6.00;99.90;;;;;;13100846;22;20003;-47
2021/05/02 22:40:28;;;;;;;2.83;0.80;;;6.00;99.90;;;;;;13103478;22;20041;-47
2021/05/02 22:45:29;;;;;;;2.00;0.70;;;6.00;99.90;;;;;;13101309;22;20054;-46
2021/05/02 22:50:32;;;;;;;2.70;1.25;;;6.00;99.90;;;;;;13100580;22;20520;-47
2021/05/02 22:55:34;;;;;;;8.02;0.70;;;6.00;99.90;;;;;;13101694;22;20011;-46
2021/05/02 23:00:40;;;;;;;1.45;0.57;;;6.00;99.90;;;;;;13101663;22;20081;-47
2021/05/02 23:05:43;;;;;;;1.98;0.70;;;5.90;99.90;;;;;;13100902;22;20014;-47
2021/05/02 23:10:44;;;;;;;1.20;0.55;;;5.90;99.90;;;;;;13099916;22;20014;-47
2021/05/02 23:15:44;;;;;;;1.83;0.70;;;5.90;99.90;;;;;;13098334;22;20002;-47
2021/05/02 23:20:45;;;;;;;6.47;0.95;;;5.90;99.90;;;;;;13099135;22;20003;-46
2021/05/02 23:25:46;;;;;;;4.53;1.10;;;6.00;99.90;;;;;;13101387;22;20030;-47
2021/05/02 23:30:47;;;;;;;2.75;1.20;;;5.80;99.90;;;;;;13101258;22;20025;-47
2021/05/02 23:35:47;;;;;;;2.30;0.75;;;5.90;99.90;;;;;;13102091;22;20011;-47
2021/05/02 23:40:48;;;;;;;1.67;0.65;;;6.00;99.90;;;;;;13102743;22;20021;-47
2021/05/02 23:45:50;;;;;;;3.30;1.20;;;6.10;99.90;;;;;;13101309;22;20011;-47
2021/05/02 23:50:50;;;;;;;2.60;0.98;;;6.10;99.90;;;;;;13099295;22;20427;-47
2021/05/02 23:55:51;;;;;;;2.47;0.80;;;6.20;99.90;;;;;;13100798;22;20007;-47
